createdAt,value
2023-01-30T00:01:14.920Z,31.42
2023-01-30T00:03:41.462Z,31.09
2023-01-30T00:06:08.012Z,30.93
2023-01-30T00:08:34.714Z,30.72
2023-01-30T00:11:07.100Z,31.08
2023-01-30T00:13:34.137Z,30.56
2023-01-30T00:16:00.791Z,30.69
2023-01-30T00:18:27.410Z,31.05
2023-01-30T00:21:01.704Z,30.75
2023-01-30T00:23:29.213Z,30.69
2023-01-30T00:25:56.161Z,31.08
2023-01-30T00:28:23.610Z,31.56
2023-01-30T00:30:54.456Z,30.88
2023-01-30T00:33:23.065Z,30.85
2023-01-30T00:35:51.810Z,30.85
2023-01-30T00:38:19.341Z,31.28
2023-01-30T00:40:47.385Z,30.70
2023-01-30T00:43:34.966Z,31.18
2023-01-30T00:46:22.244Z,31.17
2023-01-30T00:48:49.319Z,31.29
2023-01-30T00:51:15.910Z,31.08
2023-01-30T00:53:42.463Z,30.82
2023-01-30T00:56:09.021Z,30.76
2023-01-30T00:58:35.580Z,30.93
2023-01-30T01:01:02.137Z,30.55
2023-01-30T01:03:28.717Z,30.91
2023-01-30T01:05:55.365Z,30.98
2023-01-30T01:08:22.720Z,31.02
2023-01-30T01:10:49.425Z,31.25
2023-01-30T01:13:16.058Z,31.07
2023-01-30T01:15:42.633Z,31.27
2023-01-30T01:18:09.197Z,30.61
2023-01-30T01:20:35.876Z,31.18
2023-01-30T01:23:02.455Z,30.90
2023-01-30T01:25:29.100Z,30.46
2023-01-30T01:27:55.875Z,30.08
2023-01-30T01:30:22.454Z,30.03
2023-01-30T01:32:49.128Z,29.90
2023-01-30T01:35:16.165Z,29.31
2023-01-30T01:37:42.896Z,29.72
2023-01-30T01:40:36.321Z,29.61
2023-01-30T01:43:14.703Z,29.67
2023-01-30T01:45:41.715Z,29.53
2023-01-30T01:48:29.109Z,29.75
2023-01-30T01:51:16.324Z,29.39
2023-01-30T01:54:14.236Z,29.62
2023-01-30T01:56:45.898Z,29.29
2023-01-30T01:59:31.034Z,29.69
2023-01-30T02:02:03.364Z,29.93
2023-01-30T02:04:50.501Z,29.63
2023-01-30T02:07:20.826Z,29.70
2023-01-30T02:09:48.329Z,29.13
2023-01-30T02:12:15.377Z,28.91
2023-01-30T02:14:42.977Z,29.11
2023-01-30T02:17:09.688Z,30.05
2023-01-30T02:19:57.871Z,30.04
2023-01-30T02:22:33.430Z,29.32
2023-01-30T02:25:26.068Z,29.97
2023-01-30T02:28:04.342Z,29.91
2023-01-30T02:31:07.863Z,29.91
2023-01-30T02:33:58.745Z,29.44
2023-01-30T02:36:49.369Z,29.76
2023-01-30T02:39:57.409Z,29.58
2023-01-30T02:42:37.707Z,29.80
2023-01-30T02:45:12.612Z,29.64
2023-01-30T02:48:02.494Z,30.08
2023-01-30T02:50:58.987Z,29.98
2023-01-30T02:53:25.981Z,29.70
2023-01-30T02:55:52.543Z,29.45
2023-01-30T02:58:21.611Z,30.21
2023-01-30T03:01:23.590Z,30.10
2023-01-30T03:04:11.383Z,29.58
2023-01-30T03:07:12.318Z,29.42
2023-01-30T03:09:58.136Z,29.36
2023-01-30T03:12:33.554Z,29.54
2023-01-30T03:15:23.008Z,28.95
2023-01-30T03:17:49.786Z,28.91
2023-01-30T03:20:19.730Z,29.11
2023-01-30T03:22:46.567Z,28.75
2023-01-30T03:25:19.994Z,29.61
2023-01-30T03:27:47.866Z,28.66
2023-01-30T03:30:14.636Z,29.09
2023-01-30T03:32:41.212Z,28.66
2023-01-30T03:35:08.238Z,29.18
2023-01-30T03:37:35.139Z,29.38
2023-01-30T03:40:01.784Z,29.05
2023-01-30T03:42:28.654Z,28.80
2023-01-30T03:44:55.215Z,28.78
2023-01-30T03:47:21.870Z,29.04
2023-01-30T03:49:51.512Z,29.44
2023-01-30T03:52:18.060Z,30.31
2023-01-30T03:54:44.585Z,30.59
2023-01-30T03:57:11.125Z,30.41
2023-01-30T03:59:37.687Z,30.51
2023-01-30T04:02:04.384Z,30.41
2023-01-30T04:04:30.959Z,30.61
2023-01-30T04:06:57.506Z,30.10
2023-01-30T04:09:24.066Z,30.39
2023-01-30T04:11:50.645Z,30.56
2023-01-30T04:14:17.220Z,30.60
2023-01-30T04:16:44.431Z,29.99
2023-01-30T04:19:11.000Z,30.43
2023-01-30T04:21:37.682Z,30.33
2023-01-30T04:24:04.507Z,30.15
2023-01-30T04:26:31.114Z,30.12
2023-01-30T04:28:57.692Z,30.20
2023-01-30T04:31:24.273Z,30.08
2023-01-30T04:33:50.833Z,29.95
2023-01-30T04:36:17.380Z,29.93
2023-01-30T04:38:43.982Z,30.37
2023-01-30T04:41:10.640Z,30.12
2023-01-30T04:43:37.226Z,30.37
2023-01-30T04:46:03.927Z,30.36
2023-01-30T04:48:30.614Z,30.04
2023-01-30T04:50:57.715Z,30.29
2023-01-30T04:53:24.812Z,30.40
2023-01-30T04:55:51.521Z,30.39
2023-01-30T04:58:21.778Z,30.70
2023-01-30T05:00:49.030Z,30.24
2023-01-30T05:03:16.533Z,30.17
2023-01-30T05:05:47.036Z,30.39
2023-01-30T05:08:13.843Z,30.64
2023-01-30T05:10:40.407Z,30.06
2023-01-30T05:13:07.307Z,30.49
2023-01-30T05:15:33.967Z,30.52
2023-01-30T05:18:01.108Z,30.24
2023-01-30T05:20:27.705Z,29.95
2023-01-30T05:22:54.442Z,30.19
2023-01-30T05:25:21.244Z,30.38
2023-01-30T05:27:47.922Z,30.53
2023-01-30T05:30:14.621Z,30.36
2023-01-30T05:32:41.317Z,30.35
2023-01-30T05:35:08.156Z,30.04
2023-01-30T05:37:34.702Z,30.58
2023-01-30T05:40:01.274Z,30.38
2023-01-30T05:42:27.814Z,30.70
2023-01-30T05:44:54.352Z,30.78
2023-01-30T05:47:20.891Z,30.22
2023-01-30T05:49:47.468Z,31.00
2023-01-30T05:52:14.010Z,30.33
2023-01-30T05:54:40.581Z,30.43
2023-01-30T05:57:07.141Z,30.51
2023-01-30T05:59:33.867Z,30.56
2023-01-30T06:02:00.414Z,30.63
2023-01-30T06:04:27.006Z,30.66
2023-01-30T06:06:53.606Z,30.37
2023-01-30T06:09:20.147Z,30.90
2023-01-30T06:11:46.746Z,30.65
2023-01-30T06:14:13.378Z,30.63
2023-01-30T06:16:40.192Z,30.55
2023-01-30T06:19:08.038Z,30.93
2023-01-30T06:21:34.584Z,30.52
2023-01-30T06:24:02.222Z,30.15
2023-01-30T06:26:28.932Z,30.34
2023-01-30T06:28:55.513Z,30.93
2023-01-30T06:31:22.156Z,30.38
2023-01-30T06:33:49.449Z,31.05
2023-01-30T06:36:16.038Z,30.31
2023-01-30T06:38:42.615Z,30.92
2023-01-30T06:41:09.226Z,30.82
2023-01-30T06:43:35.784Z,30.89
2023-01-30T06:46:02.404Z,30.31
2023-01-30T06:48:29.077Z,30.52
2023-01-30T06:50:55.683Z,30.57
2023-01-30T06:53:25.314Z,30.57
2023-01-30T06:55:51.873Z,30.81
2023-01-30T06:58:18.539Z,30.55
2023-01-30T07:00:45.108Z,30.84
2023-01-30T07:03:16.672Z,30.20
2023-01-30T07:05:44.871Z,30.95
2023-01-30T07:08:12.124Z,30.96
2023-01-30T07:10:39.314Z,31.15
2023-01-30T07:13:05.970Z,31.48
2023-01-30T07:15:32.726Z,31.21
2023-01-30T07:17:59.688Z,31.19
2023-01-30T07:20:26.363Z,31.16
2023-01-30T07:22:54.528Z,30.86
2023-01-30T07:25:23.445Z,31.59
2023-01-30T07:27:57.037Z,31.16
2023-01-30T07:30:24.152Z,31.16
2023-01-30T07:32:55.650Z,31.36
2023-01-30T07:35:23.624Z,31.14
2023-01-30T07:37:51.257Z,30.85
2023-01-30T07:40:19.015Z,31.10
2023-01-30T07:42:56.408Z,30.96
2023-01-30T07:45:23.003Z,31.32
2023-01-30T07:47:49.561Z,31.52
2023-01-30T07:50:16.829Z,31.23
2023-01-30T07:52:43.678Z,31.26
2023-01-30T07:55:10.215Z,31.20
2023-01-30T07:57:36.781Z,31.47
2023-01-30T08:00:04.672Z,31.38
2023-01-30T08:02:31.316Z,31.40
2023-01-30T08:04:57.899Z,31.47
2023-01-30T08:07:24.500Z,31.21
2023-01-30T08:09:51.053Z,31.57
2023-01-30T08:12:17.612Z,31.49
2023-01-30T08:14:44.327Z,31.39
2023-01-30T08:17:10.942Z,31.39
2023-01-30T08:19:37.499Z,31.42
2023-01-30T08:22:04.713Z,31.35
2023-01-30T08:24:31.257Z,31.29
2023-01-30T08:26:57.862Z,31.77
2023-01-30T08:29:24.447Z,31.31
2023-01-30T08:31:51.008Z,31.55
2023-01-30T08:34:17.549Z,31.82
2023-01-30T08:36:46.616Z,31.52
2023-01-30T08:39:13.995Z,30.98
2023-01-30T08:41:43.144Z,31.10
2023-01-30T08:44:10.524Z,31.35
2023-01-30T08:46:38.675Z,31.47
2023-01-30T08:49:05.969Z,31.31
2023-01-30T08:51:33.150Z,31.61
2023-01-30T08:53:59.742Z,31.50
2023-01-30T08:56:26.315Z,31.51
2023-01-30T08:58:52.932Z,31.31
2023-01-30T09:01:19.569Z,31.54
2023-01-30T09:03:46.195Z,31.37
2023-01-30T09:06:12.852Z,30.90
2023-01-30T09:08:39.473Z,31.60
2023-01-30T09:11:06.736Z,31.13
2023-01-30T09:13:34.967Z,31.10
2023-01-30T09:16:01.559Z,31.20
2023-01-30T09:18:28.132Z,31.38
2023-01-30T09:21:02.860Z,31.04
2023-01-30T09:23:29.694Z,31.48
2023-01-30T09:25:56.299Z,31.11
2023-01-30T09:28:22.944Z,31.02
2023-01-30T09:30:49.606Z,31.34
2023-01-30T09:33:20.216Z,30.98
2023-01-30T09:35:50.213Z,30.86
2023-01-30T09:38:17.539Z,31.21
2023-01-30T09:41:30.618Z,30.51
2023-01-30T09:43:57.113Z,30.41
2023-01-30T09:46:42.693Z,30.13
2023-01-30T09:49:42.148Z,30.18
2023-01-30T09:52:25.146Z,30.49
2023-01-30T09:54:58.338Z,30.40
2023-01-30T09:57:26.034Z,30.02
2023-01-30T10:00:06.321Z,30.75
2023-01-30T10:02:39.540Z,30.75
2023-01-30T10:05:06.621Z,31.13
2023-01-30T10:08:01.189Z,30.58
2023-01-30T10:11:08.914Z,30.50
2023-01-30T10:13:48.666Z,30.81
2023-01-30T10:16:21.461Z,30.81
2023-01-30T10:18:53.890Z,31.14
2023-01-30T10:21:46.043Z,30.89
2023-01-30T10:24:41.171Z,30.57
2023-01-30T10:27:16.144Z,30.83
2023-01-30T10:29:57.978Z,30.81
2023-01-30T10:32:40.086Z,30.78
2023-01-30T10:35:15.873Z,30.46
2023-01-30T10:38:07.368Z,30.90
2023-01-30T10:40:41.424Z,31.10
2023-01-30T10:43:24.005Z,30.74
2023-01-30T10:45:54.528Z,30.85
2023-01-30T10:48:31.386Z,30.94
2023-01-30T10:51:38.570Z,29.84
2023-01-30T10:54:24.405Z,29.94
2023-01-30T10:57:12.008Z,30.33
2023-01-30T10:59:50.745Z,30.37
2023-01-30T11:02:35.308Z,29.98
2023-01-30T11:05:15.002Z,30.03
2023-01-30T11:07:45.833Z,30.56
2023-01-30T11:10:26.794Z,30.19
2023-01-30T11:13:00.551Z,29.97
2023-01-30T11:15:41.006Z,29.58
2023-01-30T11:19:01.701Z,29.93
2023-01-30T11:21:03.112Z,30.60
2023-01-30T11:23:40.579Z,30.29
2023-01-30T11:26:11.556Z,30.73
2023-01-30T11:28:44.330Z,31.00
2023-01-30T11:31:38.876Z,30.91
2023-01-30T11:34:15.312Z,31.04
2023-01-30T11:36:42.483Z,31.16
2023-01-30T11:39:15.889Z,31.02
2023-01-30T11:42:04.811Z,30.88
2023-01-30T11:44:37.916Z,30.83
2023-01-30T11:47:16.748Z,31.07
2023-01-30T11:50:11.632Z,31.19
2023-01-30T11:52:38.396Z,31.15
2023-01-30T11:55:12.591Z,31.18
2023-01-30T11:57:46.771Z,30.76
2023-01-30T12:00:19.911Z,30.61
2023-01-30T12:02:48.572Z,30.77
2023-01-30T12:05:36.482Z,30.81
2023-01-30T12:08:31.142Z,30.92
2023-01-30T12:11:02.637Z,31.17
2023-01-30T12:13:38.117Z,31.00
2023-01-30T12:16:04.675Z,30.87
2023-01-30T12:18:42.851Z,31.04
2023-01-30T12:21:15.071Z,30.86
2023-01-30T12:24:03.386Z,30.42
2023-01-30T12:26:41.145Z,30.18
2023-01-30T12:29:23.866Z,30.88
2023-01-30T12:34:34.017Z,31.01
2023-01-30T12:37:09.142Z,30.75
2023-01-30T12:39:52.477Z,31.09
2023-01-30T12:42:25.895Z,30.61
2023-01-30T12:44:52.615Z,31.01
2023-01-30T12:47:43.484Z,30.88
2023-01-30T12:50:27.713Z,30.33
2023-01-30T12:53:13.844Z,30.54
2023-01-30T12:56:23.672Z,30.65
2023-01-30T12:58:55.848Z,30.95
2023-01-30T13:01:48.074Z,30.77
2023-01-30T13:05:01.895Z,30.92
2023-01-30T13:07:36.769Z,31.14
2023-01-30T13:10:18.968Z,30.93
2023-01-30T13:13:00.621Z,31.05
2023-01-30T13:15:41.744Z,30.89
2023-01-30T13:18:25.454Z,30.83
2023-01-30T13:21:00.503Z,30.71
2023-01-30T13:23:44.636Z,29.99
2023-01-30T13:26:19.588Z,30.37
2023-01-30T13:28:56.656Z,30.00
2023-01-30T13:31:26.769Z,30.09
2023-01-30T13:34:06.359Z,29.75
2023-01-30T13:36:59.156Z,30.21
2023-01-30T13:39:58.599Z,30.23
2023-01-30T13:42:25.147Z,30.88
2023-01-30T13:44:53.984Z,31.20
2023-01-30T13:47:30.527Z,30.95
2023-01-30T13:50:26.895Z,31.25
2023-01-30T13:53:09.609Z,31.36
2023-01-30T13:55:48.210Z,31.29
2023-01-30T13:58:44.251Z,31.50
2023-01-30T14:01:13.331Z,31.16
2023-01-30T14:03:41.763Z,31.40
2023-01-30T14:06:31.657Z,31.51
2023-01-30T14:09:01.489Z,31.11
2023-01-30T14:11:37.716Z,31.45
2023-01-30T14:14:19.459Z,31.50
2023-01-30T14:16:49.071Z,31.47
2023-01-30T14:19:38.833Z,31.34
2023-01-30T14:22:36.863Z,31.33
2023-01-30T14:25:27.583Z,31.34
2023-01-30T14:28:17.184Z,31.46
2023-01-30T14:30:55.459Z,31.63
2023-01-30T14:33:21.918Z,31.69
2023-01-30T14:36:01.069Z,31.43
2023-01-30T14:38:27.733Z,31.51
2023-01-30T14:41:02.980Z,31.46
2023-01-30T14:43:41.866Z,31.27
2023-01-30T14:46:17.217Z,31.51
2023-01-30T14:48:50.135Z,31.53
2023-01-30T14:51:42.545Z,31.35
2023-01-30T14:54:11.855Z,31.82
2023-01-30T14:57:03.351Z,31.56
2023-01-30T14:59:35.943Z,31.67
2023-01-30T15:02:15.048Z,31.85
2023-01-30T15:04:44.704Z,31.57
2023-01-30T15:07:19.961Z,31.83
2023-01-30T15:09:59.447Z,31.65
2023-01-30T15:12:46.111Z,31.28
2023-01-30T15:15:58.068Z,31.49
2023-01-30T15:18:40.148Z,31.68
2023-01-30T15:21:24.943Z,31.61
2023-01-30T15:24:10.146Z,31.66
2023-01-30T15:26:48.667Z,31.83
2023-01-30T15:29:39.745Z,31.71
2023-01-30T15:32:24.742Z,31.30
2023-01-30T15:34:57.587Z,31.79
2023-01-30T15:37:31.454Z,31.66
2023-01-30T15:40:16.444Z,31.66
2023-01-30T15:42:52.413Z,31.84
2023-01-30T15:45:41.535Z,31.74
2023-01-30T15:48:38.959Z,31.84
2023-01-30T15:51:05.799Z,32.01
2023-01-30T15:53:36.103Z,31.96
2023-01-30T15:56:07.064Z,31.91
2023-01-30T15:58:43.855Z,31.75
2023-01-30T16:01:16.877Z,32.00
2023-01-30T16:03:43.535Z,32.32
2023-01-30T16:06:28.271Z,31.94
2023-01-30T16:08:57.156Z,31.65
2023-01-30T16:11:43.372Z,32.08
2023-01-30T16:14:21.656Z,31.84
2023-01-30T16:17:00.247Z,31.58
2023-01-30T16:19:31.008Z,31.96
2023-01-30T16:22:02.088Z,32.20
2023-01-30T16:24:35.218Z,31.76
2023-01-30T16:27:07.220Z,31.82
2023-01-30T16:29:46.749Z,31.87
2023-01-30T16:32:14.694Z,31.90
2023-01-30T16:34:41.425Z,31.60
2023-01-30T16:37:20.116Z,31.71
2023-01-30T16:40:19.112Z,31.83
2023-01-30T16:42:57.802Z,31.82
2023-01-30T16:45:27.298Z,32.02
2023-01-30T16:47:53.894Z,32.41
2023-01-30T16:50:24.167Z,32.22
2023-01-30T16:52:55.024Z,32.15
2023-01-30T16:55:24.747Z,31.85
2023-01-30T16:57:54.701Z,31.66
2023-01-30T17:00:25.977Z,31.96
2023-01-30T17:03:01.630Z,31.45
2023-01-30T17:05:40.467Z,31.62
2023-01-30T17:08:33.025Z,32.05
2023-01-30T17:11:00.977Z,31.94
2023-01-30T17:13:33.467Z,31.69
2023-01-30T17:16:21.946Z,31.93
2023-01-30T17:18:49.514Z,31.82
2023-01-30T17:21:16.456Z,31.88
2023-01-30T17:23:46.741Z,31.93
2023-01-30T17:26:15.701Z,31.86
2023-01-30T17:28:43.357Z,32.08
2023-01-30T17:31:14.836Z,31.98
2023-01-30T17:33:42.213Z,32.05
2023-01-30T17:36:26.047Z,32.27
2023-01-30T17:38:52.915Z,32.11
2023-01-30T17:41:25.604Z,31.99
2023-01-30T17:43:52.293Z,32.38
2023-01-30T17:46:23.091Z,32.17
2023-01-30T17:48:50.969Z,32.35
2023-01-30T17:51:17.530Z,32.08
2023-01-30T17:53:44.184Z,31.95
2023-01-30T17:56:24.132Z,32.25
2023-01-30T17:58:50.856Z,32.50
2023-01-30T18:01:19.029Z,32.60
2023-01-30T18:03:45.985Z,32.50
2023-01-30T18:06:16.394Z,33.59
2023-01-30T18:08:43.140Z,33.17
2023-01-30T18:11:11.923Z,32.83
2023-01-30T18:13:47.734Z,32.83
2023-01-30T18:16:23.374Z,32.28
2023-01-30T18:18:50.511Z,32.53
2023-01-30T18:21:18.128Z,32.67
2023-01-30T18:23:44.684Z,32.70
2023-01-30T18:26:12.396Z,32.70
2023-01-30T18:28:39.862Z,32.82
2023-01-30T18:31:07.037Z,32.63
2023-01-30T18:33:34.110Z,32.08
2023-01-30T18:36:06.186Z,32.19
2023-01-30T18:38:32.963Z,32.38
2023-01-30T18:40:59.555Z,32.43
2023-01-30T18:43:26.221Z,32.23
2023-01-30T18:46:11.623Z,32.34
2023-01-30T18:48:38.857Z,32.46
2023-01-30T18:51:12.003Z,32.60
2023-01-30T18:53:39.286Z,32.53
2023-01-30T18:56:14.770Z,32.85
2023-01-30T18:58:41.569Z,32.46
2023-01-30T19:01:10.618Z,32.77
2023-01-30T19:03:37.533Z,32.49
2023-01-30T19:06:04.441Z,32.55
2023-01-30T19:08:31.520Z,32.34
2023-01-30T19:11:32.030Z,32.62
2023-01-30T19:13:59.287Z,32.43
2023-01-30T19:16:28.041Z,33.04
2023-01-30T19:18:55.320Z,32.83
2023-01-30T19:21:23.501Z,32.42
2023-01-30T19:23:50.481Z,32.54
2023-01-30T19:26:18.440Z,32.88
2023-01-30T19:28:45.863Z,32.29
2023-01-30T19:31:18.090Z,32.50
2023-01-30T19:33:46.753Z,32.60
2023-01-30T19:36:18.778Z,32.52
2023-01-30T19:38:47.163Z,32.39
2023-01-30T19:41:16.239Z,32.32
2023-01-30T19:43:43.109Z,32.14
2023-01-30T19:46:13.641Z,32.80
2023-01-30T19:48:44.302Z,32.23
2023-01-30T19:51:22.174Z,32.50
2023-01-30T19:53:54.471Z,32.11
2023-01-30T19:56:22.706Z,32.41
2023-01-30T19:58:52.974Z,32.79
2023-01-30T20:01:21.591Z,32.28
2023-01-30T20:03:48.804Z,32.80
2023-01-30T20:06:17.949Z,32.42
2023-01-30T20:08:46.300Z,33.01
2023-01-30T20:11:14.872Z,32.36
2023-01-30T20:13:43.499Z,32.51
2023-01-30T20:16:13.064Z,32.19
2023-01-30T20:18:40.794Z,32.47
2023-01-30T20:21:09.269Z,32.58
2023-01-30T20:23:37.061Z,32.46
2023-01-30T20:26:08.602Z,32.39
2023-01-30T20:28:36.564Z,32.06
2023-01-30T20:31:15.781Z,32.18
2023-01-30T20:33:43.171Z,32.19
2023-01-30T20:36:13.250Z,32.45
2023-01-30T20:38:42.551Z,32.26
2023-01-30T20:41:11.817Z,32.10
2023-01-30T20:43:40.460Z,32.26
2023-01-30T20:46:12.650Z,32.27
2023-01-30T20:48:40.511Z,32.15
2023-01-30T20:51:13.020Z,32.46
2023-01-30T20:53:46.006Z,31.88
2023-01-30T20:56:12.544Z,32.19
2023-01-30T20:58:39.739Z,32.52
2023-01-30T21:01:11.573Z,32.34
2023-01-30T21:03:39.552Z,32.28
2023-01-30T21:06:06.331Z,32.13
2023-01-30T21:08:33.562Z,32.73
2023-01-30T21:11:09.159Z,32.12
2023-01-30T21:13:37.041Z,32.79
2023-01-30T21:16:11.134Z,32.41
2023-01-30T21:18:40.124Z,32.42
2023-01-30T21:21:08.970Z,32.31
2023-01-30T21:23:36.178Z,32.07
2023-01-30T21:26:06.025Z,32.06
2023-01-30T21:28:33.336Z,32.73
2023-01-30T21:31:07.104Z,32.39
2023-01-30T21:33:34.117Z,32.69
2023-01-30T21:36:01.955Z,32.50
2023-01-30T21:38:47.899Z,32.26
2023-01-30T21:41:39.294Z,32.53
2023-01-30T21:44:06.445Z,32.00
2023-01-30T21:46:37.834Z,32.15
2023-01-30T21:49:05.149Z,32.11
2023-01-30T21:51:32.178Z,32.45
2023-01-30T21:54:00.257Z,32.15
2023-01-30T21:56:26.813Z,32.20
2023-01-30T21:58:55.788Z,32.48
2023-01-30T22:01:22.742Z,32.34
2023-01-30T22:03:49.436Z,32.23
2023-01-30T22:06:16.198Z,32.53
2023-01-30T22:08:42.838Z,32.16
2023-01-30T22:11:11.513Z,31.98
2023-01-30T22:13:39.865Z,32.50
2023-01-30T22:16:12.582Z,32.59
2023-01-30T22:18:40.330Z,32.63
2023-01-30T22:21:11.217Z,32.52
2023-01-30T22:23:40.550Z,32.31
2023-01-30T22:26:08.259Z,32.16
2023-01-30T22:28:38.481Z,32.48
2023-01-30T22:31:19.629Z,32.18
2023-01-30T22:33:48.664Z,32.51
2023-01-30T22:36:15.636Z,31.89
2023-01-30T22:38:46.745Z,32.32
2023-01-30T22:41:16.210Z,32.63
2023-01-30T22:43:47.983Z,32.25
2023-01-30T22:46:15.758Z,32.51
2023-01-30T22:48:42.902Z,32.61
2023-01-30T22:51:21.444Z,32.35
2023-01-30T22:53:59.122Z,32.26
2023-01-30T22:56:28.868Z,31.71
2023-01-30T22:58:56.063Z,32.16
2023-01-30T23:01:31.046Z,32.21
2023-01-30T23:04:00.444Z,32.18
2023-01-30T23:06:27.799Z,32.32
2023-01-30T23:08:55.644Z,32.59
2023-01-30T23:11:28.901Z,32.64
2023-01-30T23:13:58.080Z,32.27
2023-01-30T23:16:27.626Z,32.29
2023-01-30T23:18:58.620Z,32.32
2023-01-30T23:21:36.013Z,32.15
2023-01-30T23:24:06.081Z,32.59
2023-01-30T23:26:34.788Z,32.19
2023-01-30T23:29:02.812Z,32.29
2023-01-30T23:31:30.331Z,32.71
2023-01-30T23:33:59.233Z,32.34
2023-01-30T23:36:26.249Z,32.50
2023-01-30T23:38:54.828Z,32.35
2023-01-30T23:41:30.945Z,32.24
2023-01-30T23:43:58.704Z,32.34
2023-01-30T23:46:31.174Z,32.09
2023-01-30T23:49:00.626Z,32.34
2023-01-30T23:51:29.419Z,32.47
2023-01-30T23:53:57.166Z,32.76
2023-01-30T23:56:27.498Z,32.55
2023-01-30T23:58:54.177Z,32.35
